createdAt,value
2018-03-21T00:00:16.789Z,-1.70
2018-03-21T00:01:16.822Z,-1.64
2018-03-21T00:02:17.476Z,-1.64
2018-03-21T00:03:16.737Z,-1.58
2018-03-21T00:04:16.994Z,-1.58
2018-03-21T00:05:16.262Z,-1.58
2018-03-21T00:06:16.540Z,-1.58
2018-03-21T00:07:16.798Z,-1.64
2018-03-21T00:08:17.070Z,-1.77
2018-03-21T00:09:16.331Z,-1.77
2018-03-21T00:10:16.592Z,-1.89
2018-03-21T00:11:16.648Z,-1.89
2018-03-21T00:12:16.906Z,-1.89
2018-03-21T00:13:17.166Z,-1.89
2018-03-21T00:14:16.437Z,-1.89
2018-03-21T00:15:16.702Z,-2.02
2018-03-21T00:16:16.965Z,-2.02
2018-03-21T00:17:16.221Z,-2.02
2018-03-21T00:18:16.492Z,-2.02
2018-03-21T00:19:16.762Z,-1.89
2018-03-21T00:20:17.031Z,-1.95
2018-03-21T00:21:17.100Z,-2.02
2018-03-21T00:22:16.366Z,-1.89
2018-03-21T00:23:16.622Z,-1.89
2018-03-21T00:24:16.881Z,-1.89
2018-03-21T00:25:17.146Z,-1.89
2018-03-21T00:26:16.416Z,-2.02
2018-03-21T00:27:16.678Z,-2.02
2018-03-21T00:28:16.941Z,-2.08
2018-03-21T00:29:16.200Z,-1.89
2018-03-21T00:30:16.476Z,-1.95
2018-03-21T00:31:16.528Z,-2.08
2018-03-21T00:32:16.789Z,-2.02
2018-03-21T00:33:17.059Z,-2.08
2018-03-21T00:34:16.353Z,-2.14
2018-03-21T00:35:16.611Z,-2.20
2018-03-21T00:36:16.882Z,-2.33
2018-03-21T00:37:17.157Z,-2.33
2018-03-21T00:38:16.432Z,-2.27
2018-03-21T00:39:16.706Z,-2.20
2018-03-21T00:40:16.976Z,-2.27
2018-03-21T00:41:17.003Z,-2.27
2018-03-21T00:42:16.257Z,-2.27
2018-03-21T00:43:16.545Z,-2.27
2018-03-21T00:44:16.806Z,-2.14
2018-03-21T00:45:17.078Z,-2.20
2018-03-21T00:46:16.332Z,-2.20
2018-03-21T00:47:16.594Z,-2.27
2018-03-21T00:48:16.872Z,-2.33
2018-03-21T00:49:17.129Z,-2.39
2018-03-21T00:50:16.406Z,-2.39
2018-03-21T00:51:16.458Z,-2.33
2018-03-21T00:52:16.736Z,-2.33
2018-03-21T00:53:17.146Z,-2.33
2018-03-21T00:54:16.407Z,-2.33
2018-03-21T00:55:16.685Z,-2.33
2018-03-21T00:56:16.945Z,-2.33
2018-03-21T00:57:16.198Z,-2.27
2018-03-21T00:58:16.463Z,-2.33
2018-03-21T00:59:16.725Z,-2.33
2018-03-21T01:00:16.993Z,-2.33
2018-03-21T01:01:17.051Z,-2.33
2018-03-21T01:02:16.311Z,-2.27
2018-03-21T01:03:16.578Z,-2.20
2018-03-21T01:04:16.829Z,-2.14
2018-03-21T01:05:17.095Z,-2.08
2018-03-21T01:06:16.354Z,-2.08
2018-03-21T01:07:16.614Z,-2.14
2018-03-21T01:08:16.877Z,-2.20
2018-03-21T01:09:17.137Z,-2.14
2018-03-21T01:10:16.406Z,-2.27
2018-03-21T01:11:16.464Z,-2.20
2018-03-21T01:12:16.732Z,-2.14
2018-03-21T01:13:16.984Z,-2.14
2018-03-21T01:14:16.249Z,-2.08
2018-03-21T01:15:16.512Z,-2.02
2018-03-21T01:16:16.825Z,-1.95
2018-03-21T01:17:17.086Z,-2.02
2018-03-21T01:18:16.345Z,-2.14
2018-03-21T01:19:16.635Z,-2.08
2018-03-21T01:20:16.902Z,-2.14
2018-03-21T01:21:16.944Z,-2.14
2018-03-21T01:22:16.200Z,-2.08
2018-03-21T01:23:16.470Z,-2.08
2018-03-21T01:24:16.765Z,-2.14
2018-03-21T01:25:17.029Z,-2.20
2018-03-21T01:26:16.301Z,-2.20
2018-03-21T01:27:16.569Z,-2.14
2018-03-21T01:28:16.836Z,-2.20
2018-03-21T01:29:17.098Z,-2.27
2018-03-21T01:30:16.368Z,-2.27
2018-03-21T01:31:16.417Z,-2.27
2018-03-21T01:32:16.730Z,-2.33
2018-03-21T01:33:16.990Z,-2.33
2018-03-21T01:34:16.258Z,-2.27
2018-03-21T01:35:16.516Z,-2.33
2018-03-21T01:36:16.775Z,-2.33
2018-03-21T01:37:17.040Z,-2.33
2018-03-21T01:38:16.298Z,-2.33
2018-03-21T01:39:16.570Z,-2.39
2018-03-21T01:40:16.845Z,-2.39
2018-03-21T01:41:16.870Z,-2.39
2018-03-21T01:42:17.141Z,-2.45
2018-03-21T01:43:16.402Z,-2.45
2018-03-21T01:44:16.823Z,-2.52
2018-03-21T01:45:17.093Z,-2.45
2018-03-21T01:46:16.354Z,-2.45
2018-03-21T01:47:16.620Z,-2.52
2018-03-21T01:48:16.881Z,-2.52
2018-03-21T01:49:17.147Z,-2.58
2018-03-21T01:50:16.407Z,-2.58
2018-03-21T01:51:16.427Z,-2.64
2018-03-21T01:52:16.723Z,-2.58
2018-03-21T01:53:16.990Z,-2.64
2018-03-21T01:54:16.293Z,-2.70
2018-03-21T01:55:16.549Z,-2.70
2018-03-21T01:56:16.808Z,-2.77
2018-03-21T01:57:17.074Z,-2.77
2018-03-21T01:58:16.335Z,-2.77
2018-03-21T01:59:16.597Z,-2.70
2018-03-21T02:00:16.857Z,-2.77
2018-03-21T02:01:16.910Z,-2.77
2018-03-21T02:02:17.173Z,-2.83
2018-03-21T02:03:16.442Z,-2.83
2018-03-21T02:04:16.706Z,-2.70
2018-03-21T02:05:16.975Z,-2.77
2018-03-21T02:06:16.235Z,-2.83
2018-03-21T02:07:16.496Z,-2.83
2018-03-21T02:08:16.766Z,-2.83
2018-03-21T02:09:17.048Z,-2.77
2018-03-21T02:10:16.583Z,-2.77
2018-03-21T02:11:16.633Z,-2.77
2018-03-21T02:12:16.894Z,-2.77
2018-03-21T02:13:17.151Z,-2.77
2018-03-21T02:14:16.413Z,-2.83
2018-03-21T02:15:16.675Z,-2.89
2018-03-21T02:16:16.946Z,-2.95
2018-03-21T02:17:16.207Z,-2.83
2018-03-21T02:18:16.462Z,-2.83
2018-03-21T02:19:16.726Z,-2.83
2018-03-21T02:20:16.997Z,-2.77
2018-03-21T02:21:17.024Z,-2.70
2018-03-21T02:22:16.295Z,-2.77
2018-03-21T02:23:16.557Z,-2.70
2018-03-21T02:24:16.814Z,-2.70
2018-03-21T02:25:17.073Z,-2.77
2018-03-21T02:26:16.339Z,-2.83
2018-03-21T02:27:16.598Z,-2.77
2018-03-21T02:28:16.904Z,-2.77
2018-03-21T02:29:17.163Z,-2.77
2018-03-21T02:30:16.433Z,-2.70
2018-03-21T02:31:16.463Z,-2.64
2018-03-21T02:32:16.726Z,-2.64
2018-03-21T02:33:17.006Z,-2.70
2018-03-21T02:34:16.258Z,-2.64
2018-03-21T02:35:16.538Z,-2.70
2018-03-21T02:36:16.825Z,-2.77
2018-03-21T02:37:17.091Z,-2.89
2018-03-21T02:38:16.354Z,-2.89
2018-03-21T02:39:16.619Z,-2.83
2018-03-21T02:40:16.885Z,-2.83
2018-03-21T02:41:16.931Z,-2.95
2018-03-21T02:42:17.197Z,-2.83
2018-03-21T02:43:16.472Z,-2.89
2018-03-21T02:44:16.743Z,-2.83
2018-03-21T02:45:17.004Z,-2.83
2018-03-21T02:46:16.270Z,-2.83
2018-03-21T02:47:16.544Z,-2.89
2018-03-21T02:48:16.808Z,-2.95
2018-03-21T02:49:17.076Z,-2.89
2018-03-21T02:50:16.338Z,-2.95
2018-03-21T02:51:16.386Z,-2.83
2018-03-21T02:52:16.650Z,-2.83
2018-03-21T02:53:16.918Z,-2.77
2018-03-21T02:54:17.198Z,-2.77
2018-03-21T02:55:16.485Z,-2.83
2018-03-21T02:56:16.749Z,-2.95
2018-03-21T02:57:17.013Z,-2.77
2018-03-21T02:58:16.272Z,-2.70
2018-03-21T02:59:16.541Z,-2.77
2018-03-21T03:00:16.827Z,-2.77
2018-03-21T03:01:16.885Z,-2.70
2018-03-21T03:02:17.146Z,-2.77
2018-03-21T03:03:16.406Z,-2.83
2018-03-21T03:04:16.671Z,-2.77
2018-03-21T03:05:16.949Z,-2.77
2018-03-21T03:06:16.214Z,-2.77
2018-03-21T03:07:16.493Z,-2.83
2018-03-21T03:08:16.762Z,-2.83
2018-03-21T03:09:17.025Z,-2.77
2018-03-21T03:10:16.296Z,-2.70
2018-03-21T03:11:16.333Z,-2.83
2018-03-21T03:12:16.582Z,-2.77
2018-03-21T03:13:16.849Z,-2.70
2018-03-21T03:14:17.113Z,-2.70
2018-03-21T03:15:16.367Z,-2.69
2018-03-21T03:16:16.624Z,-2.70
2018-03-21T03:17:16.880Z,-2.77
2018-03-21T03:18:17.147Z,-2.77
2018-03-21T03:19:16.405Z,-2.70
2018-03-21T03:20:16.687Z,-2.77
2018-03-21T03:21:16.701Z,-2.77
2018-03-21T03:22:16.950Z,-2.77
2018-03-21T03:23:16.214Z,-2.77
2018-03-21T03:24:16.476Z,-2.83
2018-03-21T03:25:16.747Z,-2.89
2018-03-21T03:26:17.003Z,-2.83
2018-03-21T03:27:16.272Z,-2.89
2018-03-21T03:28:16.536Z,-2.89
2018-03-21T03:29:16.800Z,-3.02
2018-03-21T03:30:17.073Z,-3.08
2018-03-21T03:31:17.111Z,-3.02
2018-03-21T03:32:16.376Z,-3.02
2018-03-21T03:33:16.704Z,-3.02
2018-03-21T03:34:17.010Z,-3.02
2018-03-21T03:35:16.270Z,-3.08
2018-03-21T03:36:16.531Z,-2.95
2018-03-21T03:37:16.796Z,-2.95
2018-03-21T03:38:17.057Z,-3.08
2018-03-21T03:39:16.326Z,-3.14
2018-03-21T03:40:16.594Z,-3.08
2018-03-21T03:41:16.195Z,-2.95
2018-03-21T03:42:16.459Z,-3.08
2018-03-21T03:43:16.724Z,-3.08
2018-03-21T03:44:16.999Z,-3.08
2018-03-21T03:45:16.263Z,-3.14
2018-03-21T03:46:16.518Z,-3.08
2018-03-21T03:47:16.780Z,-3.14
2018-03-21T03:48:17.051Z,-3.27
2018-03-21T03:49:16.314Z,-3.33
2018-03-21T03:50:16.589Z,-3.45
2018-03-21T03:51:16.626Z,-3.52
2018-03-21T03:52:16.883Z,-3.33
2018-03-21T03:53:17.144Z,-3.27
2018-03-21T03:54:16.410Z,-3.20
2018-03-21T03:55:16.680Z,-3.20
2018-03-21T03:56:16.942Z,-3.15
2018-03-21T03:57:16.205Z,-3.20
2018-03-21T03:58:16.463Z,-3.15
2018-03-21T03:59:16.728Z,-3.17
2018-03-21T04:00:17.026Z,-3.13
2018-03-21T04:01:17.049Z,-3.14
2018-03-21T04:02:16.311Z,-3.14
2018-03-21T04:03:16.579Z,-3.20
2018-03-21T04:04:16.844Z,-3.33
2018-03-21T04:05:17.114Z,-3.27
2018-03-21T04:06:16.368Z,-3.27
2018-03-21T04:07:16.654Z,-3.27
2018-03-21T04:08:16.872Z,-3.22
2018-03-21T04:09:17.132Z,-3.27
2018-03-21T04:10:16.392Z,-3.39
2018-03-21T04:11:16.442Z,-3.39
2018-03-21T04:12:16.716Z,-3.29
2018-03-21T04:13:16.980Z,-3.32
2018-03-21T04:14:16.245Z,-3.33
2018-03-21T04:15:16.513Z,-3.45
2018-03-21T04:16:16.790Z,-3.58
2018-03-21T04:17:17.046Z,-3.52
2018-03-21T04:18:16.307Z,-3.39
2018-03-21T04:19:16.571Z,-3.58
2018-03-21T04:20:16.844Z,-3.58
2018-03-21T04:21:16.888Z,-3.58
2018-03-21T04:22:17.148Z,-3.58
2018-03-21T04:23:16.845Z,-3.64
2018-03-21T04:24:16.236Z,-3.64
2018-03-21T04:25:16.496Z,-3.64
2018-03-21T04:26:16.764Z,-3.58
2018-03-21T04:27:17.024Z,-3.58
2018-03-21T04:28:16.298Z,-3.52
2018-03-21T04:29:16.558Z,-3.58
2018-03-21T04:30:16.832Z,-3.77
2018-03-21T04:31:16.869Z,-3.70
2018-03-21T04:32:17.135Z,-3.64
2018-03-21T04:33:16.392Z,-3.64
2018-03-21T04:34:16.649Z,-3.58
2018-03-21T04:35:16.909Z,-3.64
2018-03-21T04:36:17.176Z,-3.70
2018-03-21T04:37:16.433Z,-3.77
2018-03-21T04:38:16.692Z,-3.83
2018-03-21T04:39:16.952Z,-3.89
2018-03-21T04:40:16.217Z,-3.95
2018-03-21T04:41:16.257Z,-3.83
2018-03-21T04:42:16.519Z,-3.77
2018-03-21T04:43:16.777Z,-3.77
2018-03-21T04:44:17.039Z,-3.83
2018-03-21T04:45:16.622Z,-3.77
2018-03-21T04:46:16.891Z,-3.58
2018-03-21T04:47:17.151Z,-3.58
2018-03-21T04:48:16.426Z,-3.58
2018-03-21T04:49:16.692Z,-3.52
2018-03-21T04:50:16.955Z,-3.58
2018-03-21T04:51:17.045Z,-3.64
2018-03-21T04:52:16.373Z,-3.70
2018-03-21T04:53:16.646Z,-3.77
2018-03-21T04:54:16.908Z,-3.89
2018-03-21T04:55:17.172Z,-3.83
2018-03-21T04:56:16.440Z,-3.83
2018-03-21T04:57:16.758Z,-3.89
2018-03-21T04:58:17.018Z,-3.95
2018-03-21T04:59:16.282Z,-4.02
2018-03-21T05:00:16.562Z,-4.14
2018-03-21T05:01:16.596Z,-4.14
2018-03-21T05:02:16.860Z,-4.20
2018-03-21T05:03:17.123Z,-4.27
2018-03-21T05:04:16.441Z,-3.89
2018-03-21T05:05:16.703Z,-3.83
2018-03-21T05:06:16.963Z,-3.83
2018-03-21T05:07:16.217Z,-3.83
2018-03-21T05:08:16.476Z,-3.89
2018-03-21T05:09:16.730Z,-3.95
2018-03-21T05:10:17.005Z,-3.95
2018-03-21T05:11:17.050Z,-4.02
2018-03-21T05:12:16.308Z,-4.08
2018-03-21T05:13:16.564Z,-4.08
2018-03-21T05:14:16.818Z,-4.14
2018-03-21T05:15:17.084Z,-4.20
2018-03-21T05:16:16.353Z,-4.14
2018-03-21T05:17:16.684Z,-4.20
2018-03-21T05:18:16.946Z,-4.27
2018-03-21T05:19:16.211Z,-4.39
2018-03-21T05:20:16.496Z,-4.27
2018-03-21T05:21:16.511Z,-4.14
2018-03-21T05:22:16.785Z,-4.02
2018-03-21T05:23:17.042Z,-4.02
2018-03-21T05:24:16.350Z,-4.14
2018-03-21T05:25:16.643Z,-4.27
2018-03-21T05:26:16.913Z,-4.52
2018-03-21T05:27:17.688Z,-4.64
2018-03-21T05:28:16.953Z,-4.64
2018-03-21T05:29:16.212Z,-4.77
2018-03-21T05:30:16.497Z,-4.83
2018-03-21T05:31:16.537Z,-5.02
2018-03-21T05:32:16.797Z,-5.02
2018-03-21T05:33:17.061Z,-4.83
2018-03-21T05:34:16.321Z,-4.77
2018-03-21T05:35:16.582Z,-4.58
2018-03-21T05:36:16.837Z,-4.52
2018-03-21T05:37:17.111Z,-4.27
2018-03-21T05:38:16.376Z,-4.20
2018-03-21T05:39:16.639Z,-4.08
2018-03-21T05:40:16.909Z,-3.95
2018-03-21T05:41:16.949Z,-3.95
2018-03-21T05:42:16.250Z,-3.95
2018-03-21T05:43:16.512Z,-3.95
2018-03-21T05:44:16.786Z,-3.95
2018-03-21T05:45:17.069Z,-4.02
2018-03-21T05:46:16.329Z,-3.89
2018-03-21T05:47:16.607Z,-3.83
2018-03-21T05:48:16.882Z,-3.83
2018-03-21T05:49:17.145Z,-3.89
2018-03-21T05:50:16.412Z,-3.89
2018-03-21T05:51:16.449Z,-3.89
2018-03-21T05:52:16.704Z,-3.95
2018-03-21T05:53:16.969Z,-4.02
2018-03-21T05:54:16.242Z,-4.02
2018-03-21T05:55:16.507Z,-4.02
2018-03-21T05:56:16.763Z,-3.95
2018-03-21T05:57:17.030Z,-3.95
2018-03-21T05:58:16.284Z,-3.95
2018-03-21T05:59:16.548Z,-3.83
2018-03-21T06:00:16.816Z,-3.83
2018-03-21T06:01:16.973Z,-3.89
2018-03-21T06:02:16.233Z,-3.83
2018-03-21T06:03:16.496Z,-3.77
2018-03-21T06:04:16.817Z,-3.70
2018-03-21T06:05:17.150Z,-3.70
2018-03-21T06:06:16.417Z,-3.70
2018-03-21T06:07:16.680Z,-3.70
2018-03-21T06:08:16.982Z,-3.64
2018-03-21T06:09:16.242Z,-3.64
2018-03-21T06:10:16.502Z,-3.64
2018-03-21T06:11:16.560Z,-3.64
2018-03-21T06:12:16.821Z,-3.58
2018-03-21T06:13:17.084Z,-3.58
2018-03-21T06:14:16.362Z,-3.45
2018-03-21T06:15:16.622Z,-3.45
2018-03-21T06:16:16.880Z,-3.39
2018-03-21T06:17:17.138Z,-3.45
2018-03-21T06:18:16.407Z,-3.45
2018-03-21T06:19:16.667Z,-3.45
2018-03-21T06:20:16.941Z,-3.39
2018-03-21T06:21:16.976Z,-3.39
2018-03-21T06:22:16.235Z,-3.33
2018-03-21T06:23:16.536Z,-3.33
2018-03-21T06:24:16.804Z,-3.33
2018-03-21T06:25:17.059Z,-3.27
2018-03-21T06:26:16.320Z,-3.33
2018-03-21T06:27:16.591Z,-3.27
2018-03-21T06:28:16.852Z,-3.20
2018-03-21T06:29:17.120Z,-3.20
2018-03-21T06:30:16.401Z,-3.20
2018-03-21T06:31:16.432Z,-3.14
2018-03-21T06:32:16.703Z,-3.14
2018-03-21T06:33:16.970Z,-3.14
2018-03-21T06:34:16.233Z,-3.08
2018-03-21T06:35:16.507Z,-3.08
2018-03-21T06:36:16.790Z,-3.08
2018-03-21T06:37:17.057Z,-3.02
2018-03-21T06:38:16.318Z,-3.02
2018-03-21T06:39:16.582Z,-2.95
2018-03-21T06:40:16.852Z,-2.95
2018-03-21T06:41:16.886Z,-2.89
2018-03-21T06:42:17.140Z,-2.89
2018-03-21T06:43:16.400Z,-2.89
2018-03-21T06:44:16.664Z,-2.89
2018-03-21T06:45:16.922Z,-2.83
2018-03-21T06:46:16.257Z,-2.83
2018-03-21T06:47:16.520Z,-2.77
2018-03-21T06:48:16.779Z,-2.70
2018-03-21T06:49:17.037Z,-2.77
2018-03-21T06:50:16.297Z,-2.77
2018-03-21T06:51:16.341Z,-2.77
2018-03-21T06:52:16.605Z,-2.77
2018-03-21T06:53:16.875Z,-2.70
2018-03-21T06:54:17.464Z,-2.70
2018-03-21T06:55:16.737Z,-2.64
2018-03-21T06:56:17.011Z,-2.70
2018-03-21T06:57:16.270Z,-2.64
2018-03-21T06:58:16.520Z,-2.64
2018-03-21T06:59:16.776Z,-2.64
2018-03-21T07:00:17.054Z,-2.70
2018-03-21T07:01:17.082Z,-2.64
2018-03-21T07:02:16.348Z,-2.58
2018-03-21T07:03:16.609Z,-2.52
2018-03-21T07:04:16.867Z,-2.52
2018-03-21T07:05:17.126Z,-2.52
2018-03-21T07:06:16.384Z,-2.58
2018-03-21T07:07:16.656Z,-2.58
2018-03-21T07:08:16.911Z,-2.52
2018-03-21T07:09:17.182Z,-2.45
2018-03-21T07:10:16.448Z,-2.45
2018-03-21T07:11:16.492Z,-2.45
2018-03-21T07:12:16.753Z,-2.39
2018-03-21T07:13:17.012Z,-2.39
2018-03-21T07:14:16.277Z,-2.45
2018-03-21T07:15:16.547Z,-2.45
2018-03-21T07:16:16.809Z,-2.39
2018-03-21T07:17:17.070Z,-2.39
2018-03-21T07:18:16.332Z,-2.33
2018-03-21T07:19:16.592Z,-2.33
2018-03-21T07:20:16.857Z,-2.39
2018-03-21T07:21:16.905Z,-2.33
2018-03-21T07:22:17.170Z,-2.27
2018-03-21T07:23:16.429Z,-2.20
2018-03-21T07:24:16.698Z,-2.20
2018-03-21T07:25:16.958Z,-2.20
2018-03-21T07:26:16.225Z,-2.14
2018-03-21T07:27:16.486Z,-2.20
2018-03-21T07:28:16.745Z,-2.20
2018-03-21T07:29:17.001Z,-2.14
2018-03-21T07:30:16.280Z,-2.14
2018-03-21T07:31:16.320Z,-2.14
2018-03-21T07:32:16.582Z,-2.14
2018-03-21T07:33:16.844Z,-2.14
2018-03-21T07:34:17.112Z,-2.08
2018-03-21T07:35:16.377Z,-2.08
2018-03-21T07:36:16.642Z,-2.02
2018-03-21T07:37:16.901Z,-1.95
2018-03-21T07:38:17.155Z,-1.89
2018-03-21T07:39:16.431Z,-1.89
2018-03-21T07:40:16.699Z,-1.83
2018-03-21T07:41:16.752Z,-1.77
2018-03-21T07:42:17.012Z,-1.77
2018-03-21T07:43:16.273Z,-1.83
2018-03-21T07:44:16.535Z,-1.77
2018-03-21T07:45:16.798Z,-1.89
2018-03-21T07:46:17.066Z,-1.89
2018-03-21T07:47:16.332Z,-1.89
2018-03-21T07:48:16.607Z,-1.89
2018-03-21T07:49:16.869Z,-1.89
2018-03-21T07:50:17.139Z,-1.83
2018-03-21T07:51:17.173Z,-1.77
2018-03-21T07:52:16.450Z,-1.89
2018-03-21T07:53:16.713Z,-1.83
2018-03-21T07:54:16.977Z,-1.77
2018-03-21T07:55:16.246Z,-1.64
2018-03-21T07:56:16.505Z,-1.64
2018-03-21T07:57:16.768Z,-1.64
2018-03-21T07:58:17.028Z,-1.58
2018-03-21T07:59:16.291Z,-1.52
2018-03-21T08:00:16.573Z,-1.52
2018-03-21T08:01:16.588Z,-1.52
2018-03-21T08:02:16.888Z,-1.52
2018-03-21T08:03:16.248Z,-1.58
2018-03-21T08:04:16.512Z,-1.52
2018-03-21T08:05:16.771Z,-1.58
2018-03-21T08:06:17.033Z,-1.64
2018-03-21T08:07:16.301Z,-1.64
2018-03-21T08:08:16.564Z,-1.64
2018-03-21T08:09:16.949Z,-1.58
2018-03-21T08:10:16.215Z,-1.52
2018-03-21T08:11:16.261Z,-1.45
2018-03-21T08:12:16.530Z,-1.39
2018-03-21T08:13:16.789Z,-1.39
2018-03-21T08:14:17.044Z,-1.33
2018-03-21T08:15:16.307Z,-1.33
2018-03-21T08:16:16.578Z,-1.33
2018-03-21T08:17:16.847Z,-1.33
2018-03-21T08:18:17.113Z,-1.27
2018-03-21T08:19:16.380Z,-1.20
2018-03-21T08:20:16.652Z,-1.27
2018-03-21T08:21:16.694Z,-1.27
2018-03-21T08:22:16.953Z,-1.20
2018-03-21T08:23:16.214Z,-1.08
2018-03-21T08:24:16.478Z,-1.02
2018-03-21T08:25:16.747Z,-0.95
2018-03-21T08:26:17.015Z,-0.95
2018-03-21T08:27:16.287Z,-0.95
2018-03-21T08:28:16.557Z,-0.95
2018-03-21T08:29:16.824Z,-0.95
2018-03-21T08:30:17.115Z,-0.95
2018-03-21T08:31:17.146Z,-0.83
2018-03-21T08:32:16.401Z,-0.89
2018-03-21T08:33:16.668Z,-1.02
2018-03-21T08:34:16.939Z,-1.02
2018-03-21T08:35:16.198Z,-0.95
2018-03-21T08:36:16.465Z,-0.89
2018-03-21T08:37:16.729Z,-0.89
2018-03-21T08:38:16.991Z,-0.89
2018-03-21T08:39:16.252Z,-1.02
2018-03-21T08:40:16.530Z,-1.08
2018-03-21T08:41:16.560Z,-1.02
2018-03-21T08:42:16.831Z,-0.95
2018-03-21T08:43:17.100Z,-0.83
2018-03-21T08:44:16.356Z,-0.77
2018-03-21T08:45:16.615Z,-0.70
2018-03-21T08:46:16.896Z,-0.64
2018-03-21T08:47:17.172Z,-0.70
2018-03-21T08:48:16.435Z,-0.64
2018-03-21T08:49:16.706Z,-0.64
2018-03-21T08:50:16.974Z,-0.64
2018-03-21T08:51:17.016Z,-0.58
2018-03-21T08:52:16.270Z,-0.58
2018-03-21T08:53:16.527Z,-0.52
2018-03-21T08:54:16.789Z,-0.58
2018-03-21T08:55:17.072Z,-0.64
2018-03-21T08:56:16.334Z,-0.64
2018-03-21T08:57:16.590Z,-0.70
2018-03-21T08:58:16.850Z,-0.77
2018-03-21T08:59:17.106Z,-0.89
2018-03-21T09:00:16.370Z,-0.89
2018-03-21T09:01:16.426Z,-0.95
2018-03-21T09:02:16.691Z,-0.83
2018-03-21T09:03:16.960Z,-0.70
2018-03-21T09:04:16.229Z,-0.64
2018-03-21T09:05:16.494Z,-0.58
2018-03-21T09:06:16.747Z,-0.39
2018-03-21T09:07:17.009Z,-0.20
2018-03-21T09:08:16.268Z,-0.39
2018-03-21T09:09:16.531Z,-0.39
2018-03-21T09:10:16.801Z,-0.27
2018-03-21T09:11:16.846Z,-0.33
2018-03-21T09:12:17.100Z,-0.45
2018-03-21T09:13:16.357Z,-0.39
2018-03-21T09:14:16.620Z,-0.39
2018-03-21T09:15:16.895Z,-0.33
2018-03-21T09:16:17.158Z,-0.39
2018-03-21T09:17:16.419Z,-0.33
2018-03-21T09:18:16.725Z,-0.27
2018-03-21T09:19:17.082Z,-0.20
2018-03-21T09:20:16.367Z,-0.20
2018-03-21T09:21:16.404Z,-0.20
2018-03-21T09:22:16.670Z,-0.14
2018-03-21T09:23:16.930Z,-0.14
2018-03-21T09:24:17.195Z,-0.20
2018-03-21T09:25:16.449Z,-0.33
2018-03-21T09:26:17.021Z,-0.52
2018-03-21T09:27:16.290Z,-0.45
2018-03-21T09:28:16.549Z,-0.45
2018-03-21T09:29:16.817Z,-0.39
2018-03-21T09:30:17.092Z,-0.45
2018-03-21T09:31:17.129Z,-0.33
2018-03-21T09:32:16.399Z,-0.20
2018-03-21T09:33:16.668Z,-0.20
2018-03-21T09:34:16.940Z,-0.20
2018-03-21T09:35:16.191Z,-0.20
2018-03-21T09:36:16.454Z,-0.27
2018-03-21T09:37:16.718Z,-0.14
2018-03-21T09:38:16.981Z,-0.08
2018-03-21T09:39:16.246Z,0.05
2018-03-21T09:40:16.516Z,0.17
2018-03-21T09:41:16.552Z,0.17
2018-03-21T09:42:16.835Z,0.30
2018-03-21T09:43:17.094Z,0.36
2018-03-21T09:44:16.354Z,0.42
2018-03-21T09:45:16.630Z,0.42
2018-03-21T09:46:16.898Z,0.55
2018-03-21T09:47:17.173Z,0.61
2018-03-21T09:48:16.430Z,0.48
2018-03-21T09:49:16.701Z,0.42
2018-03-21T09:50:16.965Z,0.36
2018-03-21T09:51:17.027Z,0.36
2018-03-21T09:52:16.282Z,0.30
2018-03-21T09:53:16.552Z,0.30
2018-03-21T09:54:16.806Z,0.42
2018-03-21T09:55:17.056Z,0.48
2018-03-21T09:56:16.335Z,0.48
2018-03-21T09:57:16.590Z,0.55
2018-03-21T09:58:16.851Z,0.61
2018-03-21T09:59:17.122Z,0.42
2018-03-21T10:00:16.382Z,0.42
2018-03-21T10:01:16.430Z,0.61
2018-03-21T10:02:16.703Z,0.73
2018-03-21T10:03:16.967Z,0.55
2018-03-21T10:04:16.229Z,0.61
2018-03-21T10:05:16.489Z,0.61
2018-03-21T10:06:16.808Z,0.61
2018-03-21T10:07:17.094Z,0.61
2018-03-21T10:08:16.355Z,0.73
2018-03-21T10:09:16.613Z,0.67
2018-03-21T10:10:16.883Z,0.67
2018-03-21T10:11:16.923Z,0.61
2018-03-21T10:12:17.191Z,0.61
2018-03-21T10:13:16.452Z,0.55
2018-03-21T10:14:16.718Z,0.67
2018-03-21T10:15:17.003Z,0.80
2018-03-21T10:16:16.261Z,1.17
2018-03-21T10:17:16.525Z,1.30
2018-03-21T10:18:16.781Z,1.48
2018-03-21T10:19:17.039Z,1.42
2018-03-21T10:20:16.300Z,1.30
2018-03-21T10:21:16.350Z,1.17
2018-03-21T10:22:16.620Z,1.23
2018-03-21T10:23:16.899Z,1.30
2018-03-21T10:24:16.208Z,1.36
2018-03-21T10:25:16.470Z,1.30
2018-03-21T10:26:16.736Z,1.36
2018-03-21T10:27:16.994Z,1.42
2018-03-21T10:28:16.253Z,1.23
2018-03-21T10:29:16.518Z,1.23
2018-03-21T10:30:16.840Z,1.05
2018-03-21T10:31:16.878Z,0.98
2018-03-21T10:32:17.144Z,1.11
2018-03-21T10:33:16.412Z,1.05
2018-03-21T10:34:16.672Z,1.11
2018-03-21T10:35:16.933Z,1.17
2018-03-21T10:36:17.191Z,1.23
2018-03-21T10:37:16.462Z,1.30
2018-03-21T10:38:16.731Z,1.48
2018-03-21T10:39:16.994Z,1.42
2018-03-21T10:40:16.274Z,1.42
2018-03-21T10:41:16.303Z,1.42
2018-03-21T10:42:16.561Z,1.55
2018-03-21T10:43:16.825Z,1.36
2018-03-21T10:44:17.097Z,1.30
2018-03-21T10:45:16.366Z,1.05
2018-03-21T10:46:16.636Z,1.05
2018-03-21T10:47:16.905Z,1.05
2018-03-21T10:48:17.158Z,1.11
2018-03-21T10:49:16.434Z,1.17
2018-03-21T10:50:16.708Z,1.23
2018-03-21T10:51:16.751Z,1.30
2018-03-21T10:52:17.014Z,1.36
2018-03-21T10:53:16.275Z,1.48
2018-03-21T10:54:16.537Z,1.67
2018-03-21T10:55:16.802Z,1.61
2018-03-21T10:56:17.096Z,1.55
2018-03-21T10:57:16.362Z,1.36
2018-03-21T10:58:16.624Z,1.61
2018-03-21T10:59:16.880Z,1.61
2018-03-21T11:00:17.150Z,1.55
2018-03-21T11:01:17.193Z,1.61
2018-03-21T11:02:16.455Z,1.67
2018-03-21T11:03:16.713Z,1.67
2018-03-21T11:04:16.982Z,1.61
2018-03-21T11:05:16.256Z,1.61
2018-03-21T11:06:16.522Z,1.67
2018-03-21T11:07:16.785Z,1.67
2018-03-21T11:08:17.045Z,1.80
2018-03-21T11:09:16.305Z,1.80
2018-03-21T11:10:16.573Z,1.98
2018-03-21T11:11:16.608Z,1.98
2018-03-21T11:12:16.868Z,1.92
2018-03-21T11:13:17.125Z,1.86
2018-03-21T11:14:16.386Z,1.67
2018-03-21T11:15:16.644Z,1.73
2018-03-21T11:16:16.909Z,1.67
2018-03-21T11:17:17.173Z,1.61
2018-03-21T11:18:16.429Z,1.67
2018-03-21T11:19:16.704Z,1.73
2018-03-21T11:20:17.031Z,1.86
2018-03-21T11:21:17.085Z,1.92
2018-03-21T11:22:16.349Z,1.86
2018-03-21T11:23:16.608Z,1.67
2018-03-21T11:24:16.877Z,1.67
2018-03-21T11:25:17.141Z,1.61
2018-03-21T11:26:16.428Z,1.61
2018-03-21T11:27:16.693Z,1.73
2018-03-21T11:28:16.948Z,1.86
2018-03-21T11:29:16.218Z,2.05
2018-03-21T11:30:16.495Z,2.11
2018-03-21T11:31:16.526Z,1.98
2018-03-21T11:32:16.790Z,2.05
2018-03-21T11:33:17.062Z,2.17
2018-03-21T11:34:16.335Z,2.48
2018-03-21T11:35:16.603Z,2.48
2018-03-21T11:36:16.872Z,2.55
2018-03-21T11:37:17.131Z,2.17
2018-03-21T11:38:16.406Z,2.17
2018-03-21T11:39:16.665Z,1.92
2018-03-21T11:40:16.965Z,1.86
2018-03-21T11:41:16.982Z,1.92
2018-03-21T11:42:16.249Z,1.98
2018-03-21T11:43:16.516Z,1.98
2018-03-21T11:44:16.786Z,2.05
2018-03-21T11:45:17.054Z,2.11
2018-03-21T11:46:16.325Z,2.23
2018-03-21T11:47:16.586Z,2.30
2018-03-21T11:48:16.844Z,2.30
2018-03-21T11:49:17.106Z,2.11
2018-03-21T11:50:16.369Z,2.17
2018-03-21T11:51:16.418Z,2.17
2018-03-21T11:52:16.681Z,2.23
2018-03-21T11:53:16.952Z,2.42
2018-03-21T11:54:16.213Z,2.61
2018-03-21T11:55:16.478Z,2.80
2018-03-21T11:56:16.736Z,2.80
2018-03-21T11:57:17.000Z,2.86
2018-03-21T11:58:16.258Z,2.73
2018-03-21T11:59:16.523Z,2.92
2018-03-21T12:00:16.776Z,2.92
2018-03-21T12:01:16.822Z,2.73
2018-03-21T12:02:17.080Z,2.73
2018-03-21T12:03:16.350Z,2.73
2018-03-21T12:04:16.609Z,2.67
2018-03-21T12:05:16.882Z,2.61
2018-03-21T12:06:17.151Z,2.67
2018-03-21T12:07:16.414Z,2.86
2018-03-21T12:08:16.669Z,3.11
2018-03-21T12:09:16.946Z,2.98
2018-03-21T12:10:16.226Z,2.86
2018-03-21T12:11:16.264Z,2.86
2018-03-21T12:12:16.531Z,2.86
2018-03-21T12:13:16.789Z,2.98
2018-03-21T12:14:17.060Z,2.98
2018-03-21T12:15:16.318Z,3.05
2018-03-21T12:16:16.569Z,3.05
2018-03-21T12:17:16.836Z,3.05
2018-03-21T12:18:17.101Z,3.11
2018-03-21T12:19:16.366Z,2.98
2018-03-21T12:20:16.640Z,2.98
2018-03-21T12:21:16.679Z,2.92
2018-03-21T12:22:16.943Z,2.98
2018-03-21T12:23:16.200Z,3.17
2018-03-21T12:24:16.466Z,3.11
2018-03-21T12:25:16.729Z,2.92
2018-03-21T12:26:17.007Z,2.92
2018-03-21T12:27:16.271Z,2.98
2018-03-21T12:28:16.649Z,2.92
2018-03-21T12:29:16.908Z,2.98
2018-03-21T12:30:17.191Z,3.05
2018-03-21T12:31:16.221Z,3.11
2018-03-21T12:32:16.486Z,2.98
2018-03-21T12:33:16.741Z,2.98
2018-03-21T12:34:17.004Z,3.17
2018-03-21T12:35:16.261Z,3.23
2018-03-21T12:36:16.535Z,3.17
2018-03-21T12:37:16.798Z,3.17
2018-03-21T12:38:17.058Z,2.98
2018-03-21T12:39:16.337Z,2.92
2018-03-21T12:40:16.608Z,2.73
2018-03-21T12:41:16.658Z,2.73
2018-03-21T12:42:16.921Z,2.80
2018-03-21T12:43:17.185Z,2.80
2018-03-21T12:44:16.440Z,2.80
2018-03-21T12:45:16.709Z,2.98
2018-03-21T12:46:16.986Z,3.17
2018-03-21T12:47:16.253Z,3.17
2018-03-21T12:48:16.513Z,3.23
2018-03-21T12:49:16.767Z,3.30
2018-03-21T12:50:17.031Z,3.23
2018-03-21T12:51:17.068Z,3.11
2018-03-21T12:52:16.328Z,2.98
2018-03-21T12:53:16.594Z,2.98
2018-03-21T12:54:16.861Z,3.23
2018-03-21T12:55:17.121Z,3.17
2018-03-21T12:56:16.475Z,3.17
2018-03-21T12:57:16.876Z,3.30
2018-03-21T12:58:17.136Z,3.30
2018-03-21T12:59:16.402Z,3.36